sensor_id;sensor_type;location;lat;lon;timestamp;pressure;altitude;pressure_sealevel;temperature;humidity
32456;BME280;18912;43.270;27.942;2023-04-23T00:00:11;98171.09;;;11.41;51.02
32456;BME280;18912;43.270;27.942;2023-04-23T00:02:37;98170.00;;;11.81;50.21
32456;BME280;18912;43.270;27.942;2023-04-23T00:05:03;98169.56;;;11.84;50.23
32456;BME280;18912;43.270;27.942;2023-04-23T00:07:31;98181.81;;;11.93;49.85
32456;BME280;18912;43.270;27.942;2023-04-23T00:09:56;98166.16;;;12.08;49.52
32456;BME280;18912;43.270;27.942;2023-04-23T00:12:22;98167.94;;;12.20;49.26
32456;BME280;18912;43.270;27.942;2023-04-23T00:14:47;98166.16;;;12.01;49.53
32456;BME280;18912;43.270;27.942;2023-04-23T00:17:13;98169.50;;;11.97;49.11
32456;BME280;18912;43.270;27.942;2023-04-23T00:19:38;98171.19;;;11.98;48.67
32456;BME280;18912;43.270;27.942;2023-04-23T00:22:04;98169.59;;;11.71;48.87
32456;BME280;18912;43.270;27.942;2023-04-23T00:24:30;98163.34;;;11.57;49.09
32456;BME280;18912;43.270;27.942;2023-04-23T00:26:56;98171.25;;;11.59;48.80
32456;BME280;18912;43.270;27.942;2023-04-23T00:29:21;98165.91;;;11.39;49.16
32456;BME280;18912;43.270;27.942;2023-04-23T00:31:46;98165.69;;;11.41;49.17
32456;BME280;18912;43.270;27.942;2023-04-23T00:34:12;98155.28;;;11.51;48.77
32456;BME280;18912;43.270;27.942;2023-04-23T00:36:37;98157.81;;;11.26;49.42
32456;BME280;18912;43.270;27.942;2023-04-23T00:39:02;98162.19;;;11.34;49.36
32456;BME280;18912;43.270;27.942;2023-04-23T00:41:27;98157.19;;;11.17;49.75
32456;BME280;18912;43.270;27.942;2023-04-23T00:43:53;98159.91;;;10.85;50.93
32456;BME280;18912;43.270;27.942;2023-04-23T00:46:21;98158.03;;;11.18;50.23
32456;BME280;18912;43.270;27.942;2023-04-23T00:48:46;98157.56;;;11.41;50.58
32456;BME280;18912;43.270;27.942;2023-04-23T00:51:12;98159.22;;;11.55;50.62
32456;BME280;18912;43.270;27.942;2023-04-23T00:53:37;98165.88;;;11.65;50.70
32456;BME280;18912;43.270;27.942;2023-04-23T00:56:02;98163.16;;;11.72;49.94
32456;BME280;18912;43.270;27.942;2023-04-23T00:58:29;98162.13;;;11.60;49.87
32456;BME280;18912;43.270;27.942;2023-04-23T01:00:54;98161.72;;;11.56;49.94
32456;BME280;18912;43.270;27.942;2023-04-23T01:03:20;98162.53;;;11.57;49.52
32456;BME280;18912;43.270;27.942;2023-04-23T01:05:47;98163.59;;;11.49;49.32
32456;BME280;18912;43.270;27.942;2023-04-23T01:08:13;98161.72;;;11.50;49.17
32456;BME280;18912;43.270;27.942;2023-04-23T01:10:39;98160.09;;;11.09;49.67
32456;BME280;18912;43.270;27.942;2023-04-23T01:13:05;98158.22;;;11.29;49.39
32456;BME280;18912;43.270;27.942;2023-04-23T01:15:30;98153.47;;;11.05;49.84
32456;BME280;18912;43.270;27.942;2023-04-23T01:17:55;98156.34;;;10.52;51.27
32456;BME280;18912;43.270;27.942;2023-04-23T01:20:22;98166.34;;;10.77;50.82
32456;BME280;18912;43.270;27.942;2023-04-23T01:22:48;98152.44;;;10.80;50.37
32456;BME280;18912;43.270;27.942;2023-04-23T01:25:13;98157.59;;;10.62;51.01
32456;BME280;18912;43.270;27.942;2023-04-23T01:27:38;98155.09;;;10.48;51.74
32456;BME280;18912;43.270;27.942;2023-04-23T01:30:05;98159.47;;;10.55;52.58
32456;BME280;18912;43.270;27.942;2023-04-23T01:32:30;98159.28;;;10.83;52.12
32456;BME280;18912;43.270;27.942;2023-04-23T01:34:56;98165.53;;;11.03;51.20
32456;BME280;18912;43.270;27.942;2023-04-23T01:37:22;98160.31;;;11.27;50.55
32456;BME280;18912;43.270;27.942;2023-04-23T01:39:48;98165.50;;;11.36;50.18
32456;BME280;18912;43.270;27.942;2023-04-23T01:42:13;98173.63;;;11.16;50.53
32456;BME280;18912;43.270;27.942;2023-04-23T01:44:38;98165.09;;;11.19;50.27
32456;BME280;18912;43.270;27.942;2023-04-23T01:47:04;98172.59;;;11.10;50.46
32456;BME280;18912;43.270;27.942;2023-04-23T01:49:29;98169.03;;;11.29;49.47
32456;BME280;18912;43.270;27.942;2023-04-23T01:51:55;98168.22;;;11.36;49.27
32456;BME280;18912;43.270;27.942;2023-04-23T01:54:20;98170.09;;;11.15;49.46
32456;BME280;18912;43.270;27.942;2023-04-23T01:56:45;98172.19;;;11.20;49.05
32456;BME280;18912;43.270;27.942;2023-04-23T01:59:11;98173.81;;;11.34;48.97
32456;BME280;18912;43.270;27.942;2023-04-23T02:01:39;98168.63;;;11.26;49.22
32456;BME280;18912;43.270;27.942;2023-04-23T02:04:05;98176.34;;;11.22;49.73
32456;BME280;18912;43.270;27.942;2023-04-23T02:06:31;98183.00;;;11.13;49.90
32456;BME280;18912;43.270;27.942;2023-04-23T02:08:56;98180.50;;;10.92;50.85
32456;BME280;18912;43.270;27.942;2023-04-23T02:11:21;98186.34;;;11.09;49.78
32456;BME280;18912;43.270;27.942;2023-04-23T02:13:47;98186.97;;;11.04;50.12
32456;BME280;18912;43.270;27.942;2023-04-23T02:16:12;98190.91;;;10.95;50.42
32456;BME280;18912;43.270;27.942;2023-04-23T02:18:38;98189.47;;;11.12;50.21
32456;BME280;18912;43.270;27.942;2023-04-23T02:21:04;98184.66;;;11.14;49.61
32456;BME280;18912;43.270;27.942;2023-04-23T02:23:30;98184.66;;;11.14;49.22
32456;BME280;18912;43.270;27.942;2023-04-23T02:25:55;98189.22;;;11.07;50.33
32456;BME280;18912;43.270;27.942;2023-04-23T02:28:21;98188.63;;;11.12;50.63
32456;BME280;18912;43.270;27.942;2023-04-23T02:30:46;98192.34;;;11.17;50.43
32456;BME280;18912;43.270;27.942;2023-04-23T02:33:12;98187.75;;;11.24;50.23
32456;BME280;18912;43.270;27.942;2023-04-23T02:35:37;98176.75;;;11.26;50.28
32456;BME280;18912;43.270;27.942;2023-04-23T02:38:02;98181.75;;;11.16;49.70
32456;BME280;18912;43.270;27.942;2023-04-23T02:40:28;98183.81;;;10.81;50.60
32456;BME280;18912;43.270;27.942;2023-04-23T02:42:54;98179.28;;;10.88;50.95
32456;BME280;18912;43.270;27.942;2023-04-23T02:45:19;98181.34;;;11.06;50.42
32456;BME280;18912;43.270;27.942;2023-04-23T02:47:45;98174.25;;;10.98;49.64
32456;BME280;18912;43.270;27.942;2023-04-23T02:50:10;98173.41;;;10.85;49.92
32456;BME280;18912;43.270;27.942;2023-04-23T02:52:35;98181.75;;;10.90;50.05
32456;BME280;18912;43.270;27.942;2023-04-23T02:55:01;98180.53;;;11.05;49.81
32456;BME280;18912;43.270;27.942;2023-04-23T02:57:27;98183.00;;;11.13;49.27
32456;BME280;18912;43.270;27.942;2023-04-23T02:59:53;98181.97;;;11.08;49.25
32456;BME280;18912;43.270;27.942;2023-04-23T03:02:18;98178.84;;;11.11;49.99
32456;BME280;18912;43.270;27.942;2023-04-23T03:04:43;98181.34;;;11.12;49.97
32456;BME280;18912;43.270;27.942;2023-04-23T03:07:09;98185.06;;;11.11;49.71
32456;BME280;18912;43.270;27.942;2023-04-23T03:09:34;98183.41;;;11.23;49.49
32456;BME280;18912;43.270;27.942;2023-04-23T03:11:59;98182.59;;;11.16;49.30
32456;BME280;18912;43.270;27.942;2023-04-23T03:14:26;98181.31;;;11.25;49.40
32456;BME280;18912;43.270;27.942;2023-04-23T03:16:51;98183.84;;;11.20;49.28
32456;BME280;18912;43.270;27.942;2023-04-23T03:19:16;98187.16;;;10.96;49.42
32456;BME280;18912;43.270;27.942;2023-04-23T03:21:42;98189.66;;;11.17;49.11
32456;BME280;18912;43.270;27.942;2023-04-23T03:24:09;98192.97;;;11.32;49.00
32456;BME280;18912;43.270;27.942;2023-04-23T03:26:34;98194.66;;;11.34;49.25
32456;BME280;18912;43.270;27.942;2023-04-23T03:28:59;98189.25;;;11.20;49.65
32456;BME280;18912;43.270;27.942;2023-04-23T03:31:25;98195.88;;;11.24;49.26
32456;BME280;18912;43.270;27.942;2023-04-23T03:33:50;98186.72;;;11.39;49.15
32456;BME280;18912;43.270;27.942;2023-04-23T03:36:15;98190.88;;;11.48;48.61
32456;BME280;18912;43.270;27.942;2023-04-23T03:38:41;98196.25;;;11.61;48.47
32456;BME280;18912;43.270;27.942;2023-04-23T03:41:06;98196.91;;;11.50;49.19
32456;BME280;18912;43.270;27.942;2023-04-23T03:43:31;98202.97;;;11.45;49.60
32456;BME280;18912;43.270;27.942;2023-04-23T03:45:56;98205.44;;;11.47;49.88
32456;BME280;18912;43.270;27.942;2023-04-23T03:48:22;98198.97;;;11.48;50.02
32456;BME280;18912;43.270;27.942;2023-04-23T03:50:47;98204.19;;;11.69;49.76
32456;BME280;18912;43.270;27.942;2023-04-23T03:53:12;98202.06;;;11.84;49.34
32456;BME280;18912;43.270;27.942;2023-04-23T03:55:38;98206.19;;;11.93;49.11
32456;BME280;18912;43.270;27.942;2023-04-23T03:58:03;98208.44;;;12.09;49.29
32456;BME280;18912;43.270;27.942;2023-04-23T04:00:28;98209.84;;;12.25;49.93
32456;BME280;18912;43.270;27.942;2023-04-23T04:02:54;98217.44;;;12.47;49.97
32456;BME280;18912;43.270;27.942;2023-04-23T04:05:20;98218.53;;;12.71;49.97
32456;BME280;18912;43.270;27.942;2023-04-23T04:07:46;98216.94;;;12.94;50.05
32456;BME280;18912;43.270;27.942;2023-04-23T04:10:11;98219.81;;;12.99;49.82
32456;BME280;18912;43.270;27.942;2023-04-23T04:12:36;98220.84;;;13.05;50.20
32456;BME280;18912;43.270;27.942;2023-04-23T04:15:02;98219.69;;;13.19;50.18
32456;BME280;18912;43.270;27.942;2023-04-23T04:17:28;98226.94;;;13.50;50.17
32456;BME280;18912;43.270;27.942;2023-04-23T04:19:54;98226.53;;;13.89;49.80
32456;BME280;18912;43.270;27.942;2023-04-23T04:22:19;98234.41;;;13.97;50.15
32456;BME280;18912;43.270;27.942;2023-04-23T04:24:44;98229.84;;;14.34;50.09
32456;BME280;18912;43.270;27.942;2023-04-23T04:27:11;98230.63;;;14.52;50.13
32456;BME280;18912;43.270;27.942;2023-04-23T04:29:36;98242.84;;;14.61;50.25
32456;BME280;18912;43.270;27.942;2023-04-23T04:32:04;98236.72;;;14.95;50.08
32456;BME280;18912;43.270;27.942;2023-04-23T04:34:30;98232.66;;;15.28;49.91
32456;BME280;18912;43.270;27.942;2023-04-23T04:36:55;98232.97;;;15.61;49.79
32456;BME280;18912;43.270;27.942;2023-04-23T04:39:21;98237.69;;;16.00;49.59
32456;BME280;18912;43.270;27.942;2023-04-23T04:41:46;98237.88;;;16.33;49.31
32456;BME280;18912;43.270;27.942;2023-04-23T04:44:12;98242.31;;;16.62;49.07
32456;BME280;18912;43.270;27.942;2023-04-23T04:46:38;98240.69;;;16.90;48.67
32456;BME280;18912;43.270;27.942;2023-04-23T04:49:05;98247.09;;;17.12;47.84
32456;BME280;18912;43.270;27.942;2023-04-23T04:51:31;98248.13;;;17.39;47.88
32456;BME280;18912;43.270;27.942;2023-04-23T04:53:56;98249.31;;;17.76;47.78
32456;BME280;18912;43.270;27.942;2023-04-23T04:56:22;98243.28;;;18.12;46.63
32456;BME280;18912;43.270;27.942;2023-04-23T04:58:48;98258.69;;;18.35;45.83
32456;BME280;18912;43.270;27.942;2023-04-23T05:01:13;98256.94;;;18.45;45.04
32456;BME280;18912;43.270;27.942;2023-04-23T05:03:39;98250.88;;;18.65;44.68
32456;BME280;18912;43.270;27.942;2023-04-23T05:06:04;98254.22;;;18.94;44.47
32456;BME280;18912;43.270;27.942;2023-04-23T05:08:29;98248.19;;;19.18;43.91
32456;BME280;18912;43.270;27.942;2023-04-23T05:10:55;98246.91;;;19.52;43.97
32456;BME280;18912;43.270;27.942;2023-04-23T05:13:20;98248.50;;;19.85;43.97
32456;BME280;18912;43.270;27.942;2023-04-23T05:15:45;98250.84;;;20.03;44.08
32456;BME280;18912;43.270;27.942;2023-04-23T05:18:11;98252.69;;;20.29;43.41
32456;BME280;18912;43.270;27.942;2023-04-23T05:20:36;98249.66;;;20.31;42.38
32456;BME280;18912;43.270;27.942;2023-04-23T05:23:02;98257.25;;;20.66;41.80
32456;BME280;18912;43.270;27.942;2023-04-23T05:25:30;98249.69;;;20.93;41.08
32456;BME280;18912;43.270;27.942;2023-04-23T05:27:56;98258.88;;;21.38;40.65
32456;BME280;18912;43.270;27.942;2023-04-23T05:30:21;98251.47;;;21.74;40.04
32456;BME280;18912;43.270;27.942;2023-04-23T05:32:47;98259.19;;;22.07;39.69
32456;BME280;18912;43.270;27.942;2023-04-23T05:35:12;98259.16;;;22.27;39.19
32456;BME280;18912;43.270;27.942;2023-04-23T05:37:38;98255.56;;;22.37;39.12
32456;BME280;18912;43.270;27.942;2023-04-23T05:40:03;98261.00;;;22.52;39.13
32456;BME280;18912;43.270;27.942;2023-04-23T05:42:30;98261.25;;;22.71;39.08
32456;BME280;18912;43.270;27.942;2023-04-23T05:44:56;98260.97;;;22.72;39.30
32456;BME280;18912;43.270;27.942;2023-04-23T05:47:21;98263.75;;;23.26;38.76
32456;BME280;18912;43.270;27.942;2023-04-23T05:49:46;98261.66;;;23.52;38.17
32456;BME280;18912;43.270;27.942;2023-04-23T05:52:12;98263.47;;;24.00;37.84
32456;BME280;18912;43.270;27.942;2023-04-23T05:54:38;98269.94;;;24.48;38.06
32456;BME280;18912;43.270;27.942;2023-04-23T05:57:03;98265.94;;;24.59;37.73
32456;BME280;18912;43.270;27.942;2023-04-23T05:59:29;98262.06;;;25.07;37.30
32456;BME280;18912;43.270;27.942;2023-04-23T06:01:54;98268.03;;;25.14;35.30
32456;BME280;18912;43.270;27.942;2023-04-23T06:04:19;98263.28;;;25.75;34.73
32456;BME280;18912;43.270;27.942;2023-04-23T06:06:45;98262.50;;;26.07;34.52
32456;BME280;18912;43.270;27.942;2023-04-23T06:09:10;98267.41;;;26.56;31.60
32456;BME280;18912;43.270;27.942;2023-04-23T06:11:36;98261.91;;;26.83;32.00
32456;BME280;18912;43.270;27.942;2023-04-23T06:14:02;98268.38;;;26.92;31.40
32456;BME280;18912;43.270;27.942;2023-04-23T06:16:27;98270.41;;;27.27;30.64
32456;BME280;18912;43.270;27.942;2023-04-23T06:18:52;98276.31;;;27.61;30.90
32456;BME280;18912;43.270;27.942;2023-04-23T06:21:20;98265.38;;;27.43;31.17
32456;BME280;18912;43.270;27.942;2023-04-23T06:23:45;98271.38;;;27.94;30.65
32456;BME280;18912;43.270;27.942;2023-04-23T06:26:11;98269.41;;;28.17;30.52
32456;BME280;18912;43.270;27.942;2023-04-23T06:28:36;98263.66;;;28.44;30.13
32456;BME280;18912;43.270;27.942;2023-04-23T06:31:02;98265.19;;;28.50;30.03
32456;BME280;18912;43.270;27.942;2023-04-23T06:33:29;98270.09;;;28.84;29.16
32456;BME280;18912;43.270;27.942;2023-04-23T06:35:55;98274.69;;;28.80;28.08
32456;BME280;18912;43.270;27.942;2023-04-23T06:38:20;98268.56;;;28.69;29.78
32456;BME280;18912;43.270;27.942;2023-04-23T06:40:47;98268.38;;;28.57;28.22
32456;BME280;18912;43.270;27.942;2023-04-23T06:43:12;98273.22;;;27.85;29.02
32456;BME280;18912;43.270;27.942;2023-04-23T06:45:38;98267.59;;;28.43;29.52
32456;BME280;18912;43.270;27.942;2023-04-23T06:48:04;98271.72;;;28.45;28.57
32456;BME280;18912;43.270;27.942;2023-04-23T06:50:29;98276.63;;;28.79;27.86
32456;BME280;18912;43.270;27.942;2023-04-23T06:52:55;98267.25;;;29.06;27.54
32456;BME280;18912;43.270;27.942;2023-04-23T06:55:20;98268.13;;;29.23;26.38
32456;BME280;18912;43.270;27.942;2023-04-23T06:57:50;98274.94;;;29.09;26.89
32456;BME280;18912;43.270;27.942;2023-04-23T07:00:15;98276.13;;;29.16;27.39
32456;BME280;18912;43.270;27.942;2023-04-23T07:02:42;98282.94;;;29.67;27.43
32456;BME280;18912;43.270;27.942;2023-04-23T07:05:07;98276.75;;;29.95;26.46
32456;BME280;18912;43.270;27.942;2023-04-23T07:07:34;98283.53;;;29.29;26.81
32456;BME280;18912;43.270;27.942;2023-04-23T07:10:01;98283.47;;;27.98;26.80
32456;BME280;18912;43.270;27.942;2023-04-23T07:12:27;98281.44;;;28.34;27.68
32456;BME280;18912;43.270;27.942;2023-04-23T07:14:53;98275.34;;;29.24;27.30
32456;BME280;18912;43.270;27.942;2023-04-23T07:17:18;98283.25;;;29.48;25.83
32456;BME280;18912;43.270;27.942;2023-04-23T07:19:43;98284.44;;;29.81;25.24
32456;BME280;18912;43.270;27.942;2023-04-23T07:22:09;98283.47;;;29.86;24.75
32456;BME280;18912;43.270;27.942;2023-04-23T07:24:35;98292.81;;;29.90;24.14
32456;BME280;18912;43.270;27.942;2023-04-23T07:27:00;98288.41;;;29.24;24.07
32456;BME280;18912;43.270;27.942;2023-04-23T07:29:26;98293.38;;;28.35;25.80
32456;BME280;18912;43.270;27.942;2023-04-23T07:31:52;98285.06;;;28.96;25.21
32456;BME280;18912;43.270;27.942;2023-04-23T07:34:17;98289.09;;;28.82;25.01
32456;BME280;18912;43.270;27.942;2023-04-23T07:36:45;98292.31;;;28.75;26.09
32456;BME280;18912;43.270;27.942;2023-04-23T07:39:11;98288.03;;;28.69;27.40
32456;BME280;18912;43.270;27.942;2023-04-23T07:41:36;98287.84;;;28.57;28.43
32456;BME280;18912;43.270;27.942;2023-04-23T07:44:02;98293.28;;;27.96;26.45
32456;BME280;18912;43.270;27.942;2023-04-23T07:46:27;98293.13;;;26.89;27.82
32456;BME280;18912;43.270;27.942;2023-04-23T07:48:52;98284.66;;;26.53;28.16
32456;BME280;18912;43.270;27.942;2023-04-23T07:51:18;98289.84;;;26.73;30.78
32456;BME280;18912;43.270;27.942;2023-04-23T07:53:43;98289.00;;;26.59;30.75
32456;BME280;18912;43.270;27.942;2023-04-23T07:56:10;98274.56;;;26.30;32.00
32456;BME280;18912;43.270;27.942;2023-04-23T07:58:36;98282.63;;;25.38;32.64
32456;BME280;18912;43.270;27.942;2023-04-23T08:01:01;98276.78;;;25.45;32.90
32456;BME280;18912;43.270;27.942;2023-04-23T08:03:27;98274.16;;;24.64;33.32
32456;BME280;18912;43.270;27.942;2023-04-23T08:05:52;98273.16;;;24.83;32.35
32456;BME280;18912;43.270;27.942;2023-04-23T08:08:17;98268.06;;;24.67;33.06
32456;BME280;18912;43.270;27.942;2023-04-23T08:10:43;98274.84;;;24.56;32.63
32456;BME280;18912;43.270;27.942;2023-04-23T08:13:09;98277.69;;;24.46;32.91
32456;BME280;18912;43.270;27.942;2023-04-23T08:15:35;98276.88;;;23.49;34.23
32456;BME280;18912;43.270;27.942;2023-04-23T08:18:00;98283.59;;;23.28;35.24
32456;BME280;18912;43.270;27.942;2023-04-23T08:20:25;98279.16;;;23.27;34.25
32456;BME280;18912;43.270;27.942;2023-04-23T08:22:51;98267.78;;;22.90;34.92
32456;BME280;18912;43.270;27.942;2023-04-23T08:25:18;98274.97;;;23.78;33.69
32456;BME280;18912;43.270;27.942;2023-04-23T08:27:43;98265.69;;;24.32;32.11
32456;BME280;18912;43.270;27.942;2023-04-23T08:30:08;98268.38;;;25.87;31.14
32456;BME280;18912;43.270;27.942;2023-04-23T08:32:34;98262.06;;;25.07;32.58
32456;BME280;18912;43.270;27.942;2023-04-23T08:34:59;98268.03;;;25.14;32.67
32456;BME280;18912;43.270;27.942;2023-04-23T08:37:24;98267.56;;;24.36;32.53
32456;BME280;18912;43.270;27.942;2023-04-23T08:39:50;98259.84;;;25.09;33.23
32456;BME280;18912;43.270;27.942;2023-04-23T08:42:23;98262.13;;;25.44;32.68
32456;BME280;18912;43.270;27.942;2023-04-23T08:44:51;98258.69;;;24.91;31.44
32456;BME280;18912;43.270;27.942;2023-04-23T08:47:17;98257.28;;;25.31;31.28
32456;BME280;18912;43.270;27.942;2023-04-23T08:49:44;98255.28;;;24.76;32.31
32456;BME280;18912;43.270;27.942;2023-04-23T08:52:16;98248.91;;;25.18;31.06
32456;BME280;18912;43.270;27.942;2023-04-23T08:54:47;98258.53;;;24.31;31.68
32456;BME280;18912;43.270;27.942;2023-04-23T08:57:14;98254.25;;;24.15;32.34
32456;BME280;18912;43.270;27.942;2023-04-23T08:59:40;98254.03;;;23.77;32.66
32456;BME280;18912;43.270;27.942;2023-04-23T09:02:05;98247.28;;;23.88;32.71
32456;BME280;18912;43.270;27.942;2023-04-23T09:04:32;98263.81;;;23.60;33.10
32456;BME280;18912;43.270;27.942;2023-04-23T09:06:57;98264.03;;;23.19;33.96
32456;BME280;18912;43.270;27.942;2023-04-23T09:09:22;98262.97;;;22.47;35.49
32456;BME280;18912;43.270;27.942;2023-04-23T09:11:48;98256.88;;;22.55;34.34
32456;BME280;18912;43.270;27.942;2023-04-23T09:14:13;98263.16;;;22.70;34.13
32456;BME280;18912;43.270;27.942;2023-04-23T09:16:40;98269.09;;;21.98;35.80
32456;BME280;18912;43.270;27.942;2023-04-23T09:19:07;98264.69;;;22.02;35.68
32456;BME280;18912;43.270;27.942;2023-04-23T09:21:34;98266.56;;;22.37;35.52
32456;BME280;18912;43.270;27.942;2023-04-23T09:24:05;98262.59;;;22.78;35.03
32456;BME280;18912;43.270;27.942;2023-04-23T09:26:30;98263.00;;;22.26;35.59
32456;BME280;18912;43.270;27.942;2023-04-23T09:28:55;98257.84;;;22.94;34.46
32456;BME280;18912;43.270;27.942;2023-04-23T09:31:24;98267.75;;;22.95;35.46
32456;BME280;18912;43.270;27.942;2023-04-23T09:33:52;98263.44;;;22.79;37.35
32456;BME280;18912;43.270;27.942;2023-04-23T09:36:21;98261.44;;;22.89;38.18
32456;BME280;18912;43.270;27.942;2023-04-23T09:38:47;98263.78;;;23.21;36.51
32456;BME280;18912;43.270;27.942;2023-04-23T09:41:26;98267.34;;;23.21;35.39
32456;BME280;18912;43.270;27.942;2023-04-23T09:43:52;98258.59;;;23.58;34.65
32456;BME280;18912;43.270;27.942;2023-04-23T09:46:17;98250.09;;;23.01;35.13
32456;BME280;18912;43.270;27.942;2023-04-23T09:48:43;98257.94;;;23.33;34.54
32456;BME280;18912;43.270;27.942;2023-04-23T09:51:08;98267.03;;;23.33;35.13
32456;BME280;18912;43.270;27.942;2023-04-23T09:53:41;98258.66;;;24.44;33.96
32456;BME280;18912;43.270;27.942;2023-04-23T09:56:07;98259.78;;;24.15;34.20
32456;BME280;18912;43.270;27.942;2023-04-23T09:58:32;98252.44;;;24.57;33.16
32456;BME280;18912;43.270;27.942;2023-04-23T10:01:07;98257.72;;;25.01;34.70
32456;BME280;18912;43.270;27.942;2023-04-23T10:03:33;98250.13;;;24.64;35.87
32456;BME280;18912;43.270;27.942;2023-04-23T10:05:58;98253.63;;;24.23;34.61
32456;BME280;18912;43.270;27.942;2023-04-23T10:08:23;98249.19;;;23.93;34.24
32456;BME280;18912;43.270;27.942;2023-04-23T10:10:50;98243.38;;;25.18;33.48
32456;BME280;18912;43.270;27.942;2023-04-23T10:13:16;98240.53;;;24.57;32.51
32456;BME280;18912;43.270;27.942;2023-04-23T10:15:41;98243.03;;;24.82;33.28
32456;BME280;18912;43.270;27.942;2023-04-23T10:18:08;98243.72;;;24.92;32.75
32456;BME280;18912;43.270;27.942;2023-04-23T10:20:34;98239.53;;;25.88;31.83
32456;BME280;18912;43.270;27.942;2023-04-23T10:23:01;98245.88;;;26.07;32.41
32456;BME280;18912;43.270;27.942;2023-04-23T10:25:27;98248.31;;;25.76;31.94
32456;BME280;18912;43.270;27.942;2023-04-23T10:27:53;98242.81;;;24.78;32.89
32456;BME280;18912;43.270;27.942;2023-04-23T10:30:20;98241.13;;;25.01;33.62
32456;BME280;18912;43.270;27.942;2023-04-23T10:32:46;98232.47;;;25.26;31.24
32456;BME280;18912;43.270;27.942;2023-04-23T10:35:12;98225.06;;;25.59;32.02
32456;BME280;18912;43.270;27.942;2023-04-23T10:37:37;98233.00;;;25.98;30.92
32456;BME280;18912;43.270;27.942;2023-04-23T10:40:05;98224.00;;;25.73;30.31
32456;BME280;18912;43.270;27.942;2023-04-23T10:42:33;98229.72;;;24.60;32.93
32456;BME280;18912;43.270;27.942;2023-04-23T10:44:59;98226.25;;;24.50;31.95
32456;BME280;18912;43.270;27.942;2023-04-23T10:47:24;98224.88;;;24.76;32.20
32456;BME280;18912;43.270;27.942;2023-04-23T10:49:49;98234.44;;;24.36;32.59
32456;BME280;18912;43.270;27.942;2023-04-23T10:52:16;98231.53;;;24.70;31.24
32456;BME280;18912;43.270;27.942;2023-04-23T10:54:43;98227.38;;;24.49;31.81
32456;BME280;18912;43.270;27.942;2023-04-23T10:57:11;98226.44;;;24.35;32.85
32456;BME280;18912;43.270;27.942;2023-04-23T10:59:38;98227.09;;;23.64;32.86
32456;BME280;18912;43.270;27.942;2023-04-23T11:02:04;98228.22;;;23.14;33.24
32456;BME280;18912;43.270;27.942;2023-04-23T11:04:31;98229.78;;;23.74;32.75
32456;BME280;18912;43.270;27.942;2023-04-23T11:07:06;98220.41;;;23.70;33.76
32456;BME280;18912;43.270;27.942;2023-04-23T11:09:42;98238.31;;;22.85;33.44
32456;BME280;18912;43.270;27.942;2023-04-23T11:14:49;98236.88;;;23.80;32.78
32456;BME280;18912;43.270;27.942;2023-04-23T11:17:15;98230.53;;;24.61;32.51
32456;BME280;18912;43.270;27.942;2023-04-23T11:19:41;98210.75;;;24.01;33.20
32456;BME280;18912;43.270;27.942;2023-04-23T11:22:26;98226.28;;;23.92;33.16
32456;BME280;18912;43.270;27.942;2023-04-23T11:24:58;98218.25;;;25.14;33.04
32456;BME280;18912;43.270;27.942;2023-04-23T11:27:23;98218.94;;;25.62;32.90
32456;BME280;18912;43.270;27.942;2023-04-23T11:29:48;98219.13;;;25.84;31.44
32456;BME280;18912;43.270;27.942;2023-04-23T11:32:15;98229.84;;;26.36;29.80
32456;BME280;18912;43.270;27.942;2023-04-23T11:34:41;98226.91;;;25.82;30.44
32456;BME280;18912;43.270;27.942;2023-04-23T11:37:11;98227.63;;;26.20;30.98
32456;BME280;18912;43.270;27.942;2023-04-23T11:39:36;98230.75;;;26.45;30.49
32456;BME280;18912;43.270;27.942;2023-04-23T11:42:02;98236.28;;;26.32;30.24
32456;BME280;18912;43.270;27.942;2023-04-23T11:44:28;98231.47;;;26.51;29.42
32456;BME280;18912;43.270;27.942;2023-04-23T11:46:55;98232.66;;;25.85;29.76
32456;BME280;18912;43.270;27.942;2023-04-23T11:49:23;98231.25;;;26.20;29.20
32456;BME280;18912;43.270;27.942;2023-04-23T11:51:48;98229.41;;;26.29;30.67
32456;BME280;18912;43.270;27.942;2023-04-23T11:54:14;98229.00;;;26.36;31.71
32456;BME280;18912;43.270;27.942;2023-04-23T11:56:40;98223.84;;;26.29;31.25
32456;BME280;18912;43.270;27.942;2023-04-23T11:59:06;98224.38;;;26.31;31.52
32456;BME280;18912;43.270;27.942;2023-04-23T12:01:44;98222.94;;;26.20;30.65
32456;BME280;18912;43.270;27.942;2023-04-23T12:04:14;98218.22;;;26.21;31.33
32456;BME280;18912;43.270;27.942;2023-04-23T12:06:41;98214.75;;;26.29;31.08
32456;BME280;18912;43.270;27.942;2023-04-23T12:09:07;98213.06;;;26.14;31.04
32456;BME280;18912;43.270;27.942;2023-04-23T12:11:35;98211.94;;;25.83;31.56
32456;BME280;18912;43.270;27.942;2023-04-23T12:14:00;98211.13;;;24.66;31.95
32456;BME280;18912;43.270;27.942;2023-04-23T12:16:36;98210.56;;;24.69;32.75
32456;BME280;18912;43.270;27.942;2023-04-23T12:19:02;98199.19;;;22.83;35.62
32456;BME280;18912;43.270;27.942;2023-04-23T12:21:27;98199.03;;;23.13;35.63
32456;BME280;18912;43.270;27.942;2023-04-23T12:23:53;98198.59;;;23.35;35.11
32456;BME280;18912;43.270;27.942;2023-04-23T12:26:20;98195.44;;;23.08;36.25
32456;BME280;18912;43.270;27.942;2023-04-23T12:31:20;98189.03;;;22.74;37.09
32456;BME280;18912;43.270;27.942;2023-04-23T12:33:46;98182.72;;;21.69;38.24
32456;BME280;18912;43.270;27.942;2023-04-23T12:36:13;98175.56;;;21.38;39.13
32456;BME280;18912;43.270;27.942;2023-04-23T12:38:39;98186.84;;;21.62;39.08
32456;BME280;18912;43.270;27.942;2023-04-23T12:41:06;98179.41;;;21.62;39.29
32456;BME280;18912;43.270;27.942;2023-04-23T12:43:31;98181.56;;;22.10;38.84
32456;BME280;18912;43.270;27.942;2023-04-23T12:45:57;98169.81;;;22.54;38.14
32456;BME280;18912;43.270;27.942;2023-04-23T12:48:22;98174.09;;;22.16;38.73